sensor_id;sensor_type;location;lat;lon;timestamp;P1;durP1;ratioP1;P2;durP2;ratioP2
18568;SDS011;14780;48.316;-1.050;2023-03-01T00:01:04;6.03;;;3.22;;
18568;SDS011;14780;48.316;-1.050;2023-03-01T00:03:57;4.68;;;3.10;;
18568;SDS011;14780;48.316;-1.050;2023-03-01T00:06:43;3.47;;;2.63;;
18568;SDS011;14780;48.316;-1.050;2023-03-01T00:09:29;3.88;;;2.45;;
18568;SDS011;14780;48.316;-1.050;2023-03-01T00:12:14;4.18;;;2.90;;
18568;SDS011;14780;48.316;-1.050;2023-03-01T00:14:59;5.38;;;2.85;;
18568;SDS011;14780;48.316;-1.050;2023-03-01T00:17:44;4.20;;;2.70;;
18568;SDS011;14780;48.316;-1.050;2023-03-01T00:20:29;3.60;;;2.63;;
18568;SDS011;14780;48.316;-1.050;2023-03-01T00:23:14;4.20;;;2.63;;
18568;SDS011;14780;48.316;-1.050;2023-03-01T00:25:58;3.83;;;2.85;;
18568;SDS011;14780;48.316;-1.050;2023-03-01T00:28:43;5.07;;;2.60;;
18568;SDS011;14780;48.316;-1.050;2023-03-01T00:31:30;3.53;;;2.70;;
18568;SDS011;14780;48.316;-1.050;2023-03-01T00:34:15;4.15;;;2.22;;
18568;SDS011;14780;48.316;-1.050;2023-03-01T00:37:01;3.88;;;2.50;;
18568;SDS011;14780;48.316;-1.050;2023-03-01T00:39:48;4.55;;;2.83;;
18568;SDS011;14780;48.316;-1.050;2023-03-01T00:42:34;3.80;;;2.40;;
18568;SDS011;14780;48.316;-1.050;2023-03-01T00:45:18;4.55;;;2.53;;
18568;SDS011;14780;48.316;-1.050;2023-03-01T00:48:03;2.92;;;2.13;;
18568;SDS011;14780;48.316;-1.050;2023-03-01T00:50:48;4.68;;;2.80;;
18568;SDS011;14780;48.316;-1.050;2023-03-01T00:53:33;3.25;;;2.30;;
18568;SDS011;14780;48.316;-1.050;2023-03-01T00:56:19;3.63;;;2.50;;
18568;SDS011;14780;48.316;-1.050;2023-03-01T00:59:04;3.80;;;2.55;;
18568;SDS011;14780;48.316;-1.050;2023-03-01T01:01:48;3.60;;;2.45;;
18568;SDS011;14780;48.316;-1.050;2023-03-01T01:04:33;4.35;;;2.80;;
18568;SDS011;14780;48.316;-1.050;2023-03-01T01:07:18;2.88;;;2.45;;
18568;SDS011;14780;48.316;-1.050;2023-03-01T01:10:03;3.67;;;2.50;;
18568;SDS011;14780;48.316;-1.050;2023-03-01T01:12:48;3.03;;;2.55;;
18568;SDS011;14780;48.316;-1.050;2023-03-01T01:15:33;3.17;;;2.38;;
18568;SDS011;14780;48.316;-1.050;2023-03-01T01:18:18;4.30;;;2.35;;
18568;SDS011;14780;48.316;-1.050;2023-03-01T01:21:04;2.70;;;2.13;;
18568;SDS011;14780;48.316;-1.050;2023-03-01T01:23:51;4.43;;;2.30;;
18568;SDS011;14780;48.316;-1.050;2023-03-01T01:26:37;4.20;;;2.70;;
18568;SDS011;14780;48.316;-1.050;2023-03-01T01:29:21;3.78;;;2.50;;
18568;SDS011;14780;48.316;-1.050;2023-03-01T01:32:06;3.08;;;2.40;;
18568;SDS011;14780;48.316;-1.050;2023-03-01T01:34:50;3.30;;;2.50;;
18568;SDS011;14780;48.316;-1.050;2023-03-01T01:37:35;2.78;;;2.25;;
18568;SDS011;14780;48.316;-1.050;2023-03-01T01:40:20;3.30;;;2.30;;
18568;SDS011;14780;48.316;-1.050;2023-03-01T01:43:04;3.50;;;2.33;;
18568;SDS011;14780;48.316;-1.050;2023-03-01T01:46:39;3.38;;;2.47;;
18568;SDS011;14780;48.316;-1.050;2023-03-01T01:49:02;3.30;;;2.35;;
18568;SDS011;14780;48.316;-1.050;2023-03-01T01:52:04;4.15;;;2.45;;
18568;SDS011;14780;48.316;-1.050;2023-03-01T01:55:03;4.10;;;2.50;;
18568;SDS011;14780;48.316;-1.050;2023-03-01T01:57:59;4.05;;;2.55;;
18568;SDS011;14780;48.316;-1.050;2023-03-01T02:00:48;5.13;;;2.30;;
18568;SDS011;14780;48.316;-1.050;2023-03-01T02:03:33;3.22;;;2.42;;
18568;SDS011;14780;48.316;-1.050;2023-03-01T02:06:29;3.08;;;2.20;;
18568;SDS011;14780;48.316;-1.050;2023-03-01T02:09:22;3.55;;;2.20;;
18568;SDS011;14780;48.316;-1.050;2023-03-01T02:12:07;2.33;;;2.00;;
18568;SDS011;14780;48.316;-1.050;2023-03-01T02:14:52;4.38;;;2.30;;
18568;SDS011;14780;48.316;-1.050;2023-03-01T02:17:37;3.53;;;2.47;;
18568;SDS011;14780;48.316;-1.050;2023-03-01T02:23:50;2.63;;;2.10;;
18568;SDS011;14780;48.316;-1.050;2023-03-01T02:26:40;3.78;;;2.50;;
18568;SDS011;14780;48.316;-1.050;2023-03-01T02:29:33;3.03;;;2.28;;
18568;SDS011;14780;48.316;-1.050;2023-03-01T02:32:18;2.53;;;2.13;;
18568;SDS011;14780;48.316;-1.050;2023-03-01T02:35:09;3.53;;;2.22;;
18568;SDS011;14780;48.316;-1.050;2023-03-01T02:37:58;3.00;;;2.28;;
18568;SDS011;14780;48.316;-1.050;2023-03-01T02:40:45;2.63;;;2.10;;
18568;SDS011;14780;48.316;-1.050;2023-03-01T02:43:31;3.35;;;2.40;;
18568;SDS011;14780;48.316;-1.050;2023-03-01T02:46:19;3.38;;;2.30;;
18568;SDS011;14780;48.316;-1.050;2023-03-01T02:49:16;2.90;;;2.15;;
18568;SDS011;14780;48.316;-1.050;2023-03-01T02:57:54;3.17;;;2.30;;
18568;SDS011;14780;48.316;-1.050;2023-03-01T03:00:41;2.72;;;2.33;;
18568;SDS011;14780;48.316;-1.050;2023-03-01T03:03:30;2.83;;;2.30;;
18568;SDS011;14780;48.316;-1.050;2023-03-01T03:06:14;2.95;;;2.33;;
18568;SDS011;14780;48.316;-1.050;2023-03-01T03:08:59;2.83;;;2.10;;
18568;SDS011;14780;48.316;-1.050;2023-03-01T03:11:44;3.47;;;2.20;;
18568;SDS011;14780;48.316;-1.050;2023-03-01T03:14:28;2.50;;;2.15;;
18568;SDS011;14780;48.316;-1.050;2023-03-01T03:17:13;3.80;;;2.15;;
18568;SDS011;14780;48.316;-1.050;2023-03-01T03:19:58;3.80;;;2.50;;
18568;SDS011;14780;48.316;-1.050;2023-03-01T03:22:43;3.38;;;2.70;;
18568;SDS011;14780;48.316;-1.050;2023-03-01T03:25:31;2.88;;;2.22;;
18568;SDS011;14780;48.316;-1.050;2023-03-01T03:28:21;3.85;;;2.78;;
18568;SDS011;14780;48.316;-1.050;2023-03-01T03:31:06;3.05;;;2.55;;
18568;SDS011;14780;48.316;-1.050;2023-03-01T03:33:51;3.38;;;2.50;;
18568;SDS011;14780;48.316;-1.050;2023-03-01T03:36:35;3.15;;;2.33;;
18568;SDS011;14780;48.316;-1.050;2023-03-01T03:39:20;3.50;;;2.47;;
18568;SDS011;14780;48.316;-1.050;2023-03-01T03:42:06;3.20;;;2.47;;
18568;SDS011;14780;48.316;-1.050;2023-03-01T03:44:51;3.55;;;2.70;;
18568;SDS011;14780;48.316;-1.050;2023-03-01T03:47:35;4.85;;;2.60;;
18568;SDS011;14780;48.316;-1.050;2023-03-01T03:50:20;3.97;;;2.42;;
18568;SDS011;14780;48.316;-1.050;2023-03-01T03:53:08;3.67;;;2.55;;
18568;SDS011;14780;48.316;-1.050;2023-03-01T03:55:54;3.60;;;2.58;;
18568;SDS011;14780;48.316;-1.050;2023-03-01T03:58:40;3.03;;;2.40;;
18568;SDS011;14780;48.316;-1.050;2023-03-01T04:01:24;3.13;;;2.40;;
18568;SDS011;14780;48.316;-1.050;2023-03-01T04:04:09;3.25;;;2.58;;
18568;SDS011;14780;48.316;-1.050;2023-03-01T04:06:54;3.33;;;2.40;;
18568;SDS011;14780;48.316;-1.050;2023-03-01T04:09:39;3.42;;;2.40;;
18568;SDS011;14780;48.316;-1.050;2023-03-01T04:12:25;3.42;;;2.40;;
18568;SDS011;14780;48.316;-1.050;2023-03-01T04:15:10;3.35;;;2.53;;
18568;SDS011;14780;48.316;-1.050;2023-03-01T04:17:58;3.22;;;2.58;;
18568;SDS011;14780;48.316;-1.050;2023-03-01T04:20:43;3.17;;;2.30;;
18568;SDS011;14780;48.316;-1.050;2023-03-01T04:23:28;2.55;;;2.33;;
18568;SDS011;14780;48.316;-1.050;2023-03-01T04:26:13;3.00;;;2.40;;
18568;SDS011;14780;48.316;-1.050;2023-03-01T04:28:58;2.88;;;2.22;;
18568;SDS011;14780;48.316;-1.050;2023-03-01T04:31:43;4.10;;;2.45;;
18568;SDS011;14780;48.316;-1.050;2023-03-01T04:34:27;3.13;;;2.63;;
18568;SDS011;14780;48.316;-1.050;2023-03-01T04:37:13;3.35;;;2.45;;
18568;SDS011;14780;48.316;-1.050;2023-03-01T04:40:00;2.88;;;2.45;;
18568;SDS011;14780;48.316;-1.050;2023-03-01T04:42:56;3.55;;;2.42;;
18568;SDS011;14780;48.316;-1.050;2023-03-01T04:45:41;3.65;;;2.50;;
18568;SDS011;14780;48.316;-1.050;2023-03-01T04:48:26;3.40;;;2.60;;
18568;SDS011;14780;48.316;-1.050;2023-03-01T04:51:11;3.72;;;2.30;;
18568;SDS011;14780;48.316;-1.050;2023-03-01T04:53:57;3.20;;;2.40;;
18568;SDS011;14780;48.316;-1.050;2023-03-01T04:56:42;4.50;;;2.63;;
18568;SDS011;14780;48.316;-1.050;2023-03-01T04:59:26;3.10;;;2.35;;
18568;SDS011;14780;48.316;-1.050;2023-03-01T05:02:11;3.30;;;2.45;;
18568;SDS011;14780;48.316;-1.050;2023-03-01T05:04:56;3.65;;;2.40;;
18568;SDS011;14780;48.316;-1.050;2023-03-01T05:07:41;3.33;;;2.40;;
18568;SDS011;14780;48.316;-1.050;2023-03-01T05:10:26;2.92;;;2.40;;
18568;SDS011;14780;48.316;-1.050;2023-03-01T05:13:15;3.83;;;2.53;;
18568;SDS011;14780;48.316;-1.050;2023-03-01T05:16:04;3.60;;;2.63;;
18568;SDS011;14780;48.316;-1.050;2023-03-01T05:18:54;2.78;;;2.35;;
18568;SDS011;14780;48.316;-1.050;2023-03-01T05:21:41;2.78;;;2.38;;
18568;SDS011;14780;48.316;-1.050;2023-03-01T05:24:45;3.50;;;2.40;;
18568;SDS011;14780;48.316;-1.050;2023-03-01T05:27:30;3.85;;;2.42;;
18568;SDS011;14780;48.316;-1.050;2023-03-01T05:30:15;3.78;;;2.60;;
18568;SDS011;14780;48.316;-1.050;2023-03-01T05:33:01;3.28;;;2.35;;
18568;SDS011;14780;48.316;-1.050;2023-03-01T05:35:46;3.42;;;2.33;;
18568;SDS011;14780;48.316;-1.050;2023-03-01T05:38:32;3.40;;;2.40;;
18568;SDS011;14780;48.316;-1.050;2023-03-01T05:41:17;6.28;;;2.70;;
18568;SDS011;14780;48.316;-1.050;2023-03-01T05:44:02;4.60;;;2.28;;
18568;SDS011;14780;48.316;-1.050;2023-03-01T05:46:48;2.97;;;2.22;;
18568;SDS011;14780;48.316;-1.050;2023-03-01T05:49:33;3.70;;;2.50;;
18568;SDS011;14780;48.316;-1.050;2023-03-01T05:52:18;3.50;;;2.30;;
18568;SDS011;14780;48.316;-1.050;2023-03-01T05:55:03;2.85;;;2.30;;
18568;SDS011;14780;48.316;-1.050;2023-03-01T05:57:48;4.07;;;2.58;;
18568;SDS011;14780;48.316;-1.050;2023-03-01T06:00:36;3.33;;;2.45;;
18568;SDS011;14780;48.316;-1.050;2023-03-01T06:03:21;3.53;;;2.55;;
18568;SDS011;14780;48.316;-1.050;2023-03-01T06:06:05;2.85;;;2.22;;
18568;SDS011;14780;48.316;-1.050;2023-03-01T06:08:51;3.05;;;2.30;;
18568;SDS011;14780;48.316;-1.050;2023-03-01T06:11:36;3.60;;;2.58;;
18568;SDS011;14780;48.316;-1.050;2023-03-01T06:14:21;3.30;;;2.40;;
18568;SDS011;14780;48.316;-1.050;2023-03-01T06:17:06;4.53;;;2.65;;
18568;SDS011;14780;48.316;-1.050;2023-03-01T06:19:50;5.05;;;2.85;;
18568;SDS011;14780;48.316;-1.050;2023-03-01T06:22:35;3.05;;;2.00;;
18568;SDS011;14780;48.316;-1.050;2023-03-01T06:25:23;3.03;;;2.25;;
18568;SDS011;14780;48.316;-1.050;2023-03-01T06:28:10;3.50;;;2.40;;
18568;SDS011;14780;48.316;-1.050;2023-03-01T06:30:54;4.43;;;3.17;;
18568;SDS011;14780;48.316;-1.050;2023-03-01T06:33:39;5.13;;;3.55;;
18568;SDS011;14780;48.316;-1.050;2023-03-01T06:36:24;5.97;;;3.28;;
18568;SDS011;14780;48.316;-1.050;2023-03-01T06:39:09;4.47;;;2.97;;
18568;SDS011;14780;48.316;-1.050;2023-03-01T06:41:53;4.43;;;2.80;;
18568;SDS011;14780;48.316;-1.050;2023-03-01T06:44:38;4.20;;;2.65;;
18568;SDS011;14780;48.316;-1.050;2023-03-01T06:47:23;4.47;;;2.65;;
18568;SDS011;14780;48.316;-1.050;2023-03-01T06:50:08;5.35;;;2.78;;
18568;SDS011;14780;48.316;-1.050;2023-03-01T06:52:56;4.78;;;2.90;;
18568;SDS011;14780;48.316;-1.050;2023-03-01T06:55:41;3.97;;;2.78;;
18568;SDS011;14780;48.316;-1.050;2023-03-01T06:58:26;4.43;;;2.88;;
18568;SDS011;14780;48.316;-1.050;2023-03-01T07:01:11;4.50;;;2.80;;
18568;SDS011;14780;48.316;-1.050;2023-03-01T07:03:56;3.70;;;2.40;;
18568;SDS011;14780;48.316;-1.050;2023-03-01T07:06:41;3.10;;;2.50;;
18568;SDS011;14780;48.316;-1.050;2023-03-01T07:09:25;3.45;;;2.35;;
18568;SDS011;14780;48.316;-1.050;2023-03-01T07:12:11;3.60;;;2.40;;
18568;SDS011;14780;48.316;-1.050;2023-03-01T07:14:56;4.10;;;2.58;;
18568;SDS011;14780;48.316;-1.050;2023-03-01T07:17:40;4.00;;;2.28;;
18568;SDS011;14780;48.316;-1.050;2023-03-01T07:20:26;7.22;;;2.80;;
18568;SDS011;14780;48.316;-1.050;2023-03-01T07:23:10;4.68;;;2.70;;
18568;SDS011;14780;48.316;-1.050;2023-03-01T07:25:55;4.40;;;2.92;;
18568;SDS011;14780;48.316;-1.050;2023-03-01T07:28:39;5.93;;;2.80;;
18568;SDS011;14780;48.316;-1.050;2023-03-01T07:31:24;3.65;;;2.53;;
18568;SDS011;14780;48.316;-1.050;2023-03-01T07:34:11;4.00;;;2.53;;
18568;SDS011;14780;48.316;-1.050;2023-03-01T07:36:56;3.45;;;2.53;;
18568;SDS011;14780;48.316;-1.050;2023-03-01T07:39:40;3.67;;;2.40;;
18568;SDS011;14780;48.316;-1.050;2023-03-01T07:42:25;4.32;;;2.78;;
18568;SDS011;14780;48.316;-1.050;2023-03-01T07:45:10;3.70;;;2.63;;
18568;SDS011;14780;48.316;-1.050;2023-03-01T07:47:57;3.08;;;2.45;;
18568;SDS011;14780;48.316;-1.050;2023-03-01T07:50:41;3.40;;;2.55;;
18568;SDS011;14780;48.316;-1.050;2023-03-01T07:53:26;3.10;;;2.25;;
18568;SDS011;14780;48.316;-1.050;2023-03-01T07:56:12;4.15;;;2.63;;
18568;SDS011;14780;48.316;-1.050;2023-03-01T07:58:58;3.85;;;2.65;;
18568;SDS011;14780;48.316;-1.050;2023-03-01T08:01:43;5.43;;;2.78;;
18568;SDS011;14780;48.316;-1.050;2023-03-01T08:04:28;3.58;;;2.60;;
18568;SDS011;14780;48.316;-1.050;2023-03-01T08:07:12;4.50;;;2.50;;
18568;SDS011;14780;48.316;-1.050;2023-03-01T08:09:57;8.93;;;2.72;;
18568;SDS011;14780;48.316;-1.050;2023-03-01T08:12:42;5.20;;;3.08;;
18568;SDS011;14780;48.316;-1.050;2023-03-01T08:15:26;7.50;;;3.28;;
18568;SDS011;14780;48.316;-1.050;2023-03-01T08:18:11;4.93;;;3.38;;
18568;SDS011;14780;48.316;-1.050;2023-03-01T08:20:56;6.20;;;3.35;;
18568;SDS011;14780;48.316;-1.050;2023-03-01T08:23:45;4.20;;;2.90;;
18568;SDS011;14780;48.316;-1.050;2023-03-01T08:26:30;7.30;;;2.80;;
18568;SDS011;14780;48.316;-1.050;2023-03-01T08:29:15;4.68;;;3.00;;
18568;SDS011;14780;48.316;-1.050;2023-03-01T08:32:00;4.28;;;3.10;;
18568;SDS011;14780;48.316;-1.050;2023-03-01T08:34:48;6.50;;;2.97;;
18568;SDS011;14780;48.316;-1.050;2023-03-01T08:37:33;4.65;;;3.00;;
18568;SDS011;14780;48.316;-1.050;2023-03-01T08:40:17;4.85;;;2.97;;
18568;SDS011;14780;48.316;-1.050;2023-03-01T08:43:02;6.22;;;3.15;;
18568;SDS011;14780;48.316;-1.050;2023-03-01T08:45:48;6.40;;;2.92;;
18568;SDS011;14780;48.316;-1.050;2023-03-01T08:48:33;4.03;;;3.00;;
18568;SDS011;14780;48.316;-1.050;2023-03-01T08:51:18;4.47;;;2.80;;
18568;SDS011;14780;48.316;-1.050;2023-03-01T08:54:05;3.78;;;2.72;;
18568;SDS011;14780;48.316;-1.050;2023-03-01T08:56:51;6.28;;;2.65;;
18568;SDS011;14780;48.316;-1.050;2023-03-01T08:59:36;4.50;;;2.83;;
18568;SDS011;14780;48.316;-1.050;2023-03-01T09:02:20;4.50;;;2.40;;
18568;SDS011;14780;48.316;-1.050;2023-03-01T09:05:05;5.15;;;2.90;;
18568;SDS011;14780;48.316;-1.050;2023-03-01T09:07:50;3.80;;;2.75;;
18568;SDS011;14780;48.316;-1.050;2023-03-01T09:10:37;4.70;;;2.83;;
18568;SDS011;14780;48.316;-1.050;2023-03-01T09:13:23;3.97;;;2.63;;
18568;SDS011;14780;48.316;-1.050;2023-03-01T09:16:08;3.70;;;2.50;;
18568;SDS011;14780;48.316;-1.050;2023-03-01T09:18:54;3.47;;;2.65;;
18568;SDS011;14780;48.316;-1.050;2023-03-01T09:21:39;4.13;;;2.40;;
18568;SDS011;14780;48.316;-1.050;2023-03-01T09:24:24;3.53;;;2.60;;
18568;SDS011;14780;48.316;-1.050;2023-03-01T09:27:09;3.67;;;2.45;;
18568;SDS011;14780;48.316;-1.050;2023-03-01T09:29:56;3.60;;;2.40;;
18568;SDS011;14780;48.316;-1.050;2023-03-01T09:32:41;4.28;;;2.72;;
18568;SDS011;14780;48.316;-1.050;2023-03-01T09:35:26;3.97;;;2.40;;
18568;SDS011;14780;48.316;-1.050;2023-03-01T09:38:14;4.35;;;2.70;;
18568;SDS011;14780;48.316;-1.050;2023-03-01T09:41:00;4.25;;;2.55;;
18568;SDS011;14780;48.316;-1.050;2023-03-01T09:43:50;5.47;;;2.83;;
18568;SDS011;14780;48.316;-1.050;2023-03-01T09:46:39;6.90;;;3.08;;
18568;SDS011;14780;48.316;-1.050;2023-03-01T09:49:36;4.10;;;2.92;;
18568;SDS011;14780;48.316;-1.050;2023-03-01T10:04:49;4.00;;;2.50;;
18568;SDS011;14780;48.316;-1.050;2023-03-01T10:13:16;3.67;;;2.60;;
18568;SDS011;14780;48.316;-1.050;2023-03-01T10:16:12;4.72;;;2.88;;
18568;SDS011;14780;48.316;-1.050;2023-03-01T10:19:05;5.28;;;3.10;;
18568;SDS011;14780;48.316;-1.050;2023-03-01T10:21:55;5.07;;;3.05;;
18568;SDS011;14780;48.316;-1.050;2023-03-01T10:30:32;4.55;;;2.58;;
18568;SDS011;14780;48.316;-1.050;2023-03-01T10:36:10;4.72;;;2.47;;
18568;SDS011;14780;48.316;-1.050;2023-03-01T10:38:56;4.45;;;2.80;;
18568;SDS011;14780;48.316;-1.050;2023-03-01T10:41:51;3.35;;;2.50;;
18568;SDS011;14780;48.316;-1.050;2023-03-01T10:47:27;3.05;;;2.40;;
18568;SDS011;14780;48.316;-1.050;2023-03-01T10:50:19;4.47;;;2.72;;
18568;SDS011;14780;48.316;-1.050;2023-03-01T10:53:08;4.32;;;2.67;;
18568;SDS011;14780;48.316;-1.050;2023-03-01T10:56:13;3.70;;;2.53;;
18568;SDS011;14780;48.316;-1.050;2023-03-01T10:59:03;3.75;;;2.30;;
18568;SDS011;14780;48.316;-1.050;2023-03-01T11:02:01;3.72;;;2.47;;
18568;SDS011;14780;48.316;-1.050;2023-03-01T11:05:19;3.53;;;2.50;;
18568;SDS011;14780;48.316;-1.050;2023-03-01T11:08:07;3.72;;;2.38;;
18568;SDS011;14780;48.316;-1.050;2023-03-01T11:11:00;4.22;;;2.42;;
18568;SDS011;14780;48.316;-1.050;2023-03-01T11:17:02;6.47;;;2.53;;
18568;SDS011;14780;48.316;-1.050;2023-03-01T11:20:01;4.18;;;2.30;;
18568;SDS011;14780;48.316;-1.050;2023-03-01T11:22:52;3.13;;;2.20;;
18568;SDS011;14780;48.316;-1.050;2023-03-01T11:25:42;4.07;;;2.40;;
18568;SDS011;14780;48.316;-1.050;2023-03-01T11:28:31;5.20;;;2.47;;
18568;SDS011;14780;48.316;-1.050;2023-03-01T11:31:19;4.05;;;2.53;;
18568;SDS011;14780;48.316;-1.050;2023-03-01T11:34:09;3.55;;;2.55;;
18568;SDS011;14780;48.316;-1.050;2023-03-01T11:36:59;3.78;;;2.40;;
18568;SDS011;14780;48.316;-1.050;2023-03-01T11:39:53;3.40;;;2.33;;
18568;SDS011;14780;48.316;-1.050;2023-03-01T11:42:50;3.33;;;2.47;;
18568;SDS011;14780;48.316;-1.050;2023-03-01T12:01:13;12.95;;;7.18;;
18568;SDS011;14780;48.316;-1.050;2023-03-01T12:10:18;11.38;;;5.07;;
18568;SDS011;14780;48.316;-1.050;2023-03-01T12:24:48;6.45;;;3.85;;
18568;SDS011;14780;48.316;-1.050;2023-03-01T12:36:47;5.22;;;3.60;;
18568;SDS011;14780;48.316;-1.050;2023-03-01T12:52:10;6.45;;;3.40;;
18568;SDS011;14780;48.316;-1.050;2023-03-01T12:55:03;5.60;;;3.13;;
18568;SDS011;14780;48.316;-1.050;2023-03-01T12:58:04;5.03;;;3.33;;
18568;SDS011;14780;48.316;-1.050;2023-03-01T13:13:01;5.22;;;3.22;;
18568;SDS011;14780;48.316;-1.050;2023-03-01T13:15:56;7.15;;;4.03;;
18568;SDS011;14780;48.316;-1.050;2023-03-01T13:18:41;7.90;;;3.78;;
18568;SDS011;14780;48.316;-1.050;2023-03-01T13:21:30;6.25;;;3.85;;
18568;SDS011;14780;48.316;-1.050;2023-03-01T13:24:28;6.28;;;4.07;;
18568;SDS011;14780;48.316;-1.050;2023-03-01T13:30:01;7.10;;;3.70;;
18568;SDS011;14780;48.316;-1.050;2023-03-01T13:32:49;5.10;;;3.70;;
18568;SDS011;14780;48.316;-1.050;2023-03-01T13:35:41;5.38;;;3.47;;
18568;SDS011;14780;48.316;-1.050;2023-03-01T13:44:32;5.38;;;3.40;;
18568;SDS011;14780;48.316;-1.050;2023-03-01T13:47:20;5.55;;;3.67;;
18568;SDS011;14780;48.316;-1.050;2023-03-01T13:50:05;4.95;;;3.28;;
18568;SDS011;14780;48.316;-1.050;2023-03-01T13:52:52;6.63;;;3.53;;
18568;SDS011;14780;48.316;-1.050;2023-03-01T13:55:47;5.75;;;3.70;;
18568;SDS011;14780;48.316;-1.050;2023-03-01T13:58:43;6.53;;;3.97;;
18568;SDS011;14780;48.316;-1.050;2023-03-01T14:02:01;7.78;;;4.47;;
18568;SDS011;14780;48.316;-1.050;2023-03-01T14:04:55;6.10;;;4.05;;
18568;SDS011;14780;48.316;-1.050;2023-03-01T14:07:41;6.03;;;4.13;;
18568;SDS011;14780;48.316;-1.050;2023-03-01T14:10:28;6.25;;;4.10;;
18568;SDS011;14780;48.316;-1.050;2023-03-01T14:13:27;7.03;;;4.10;;
18568;SDS011;14780;48.316;-1.050;2023-03-01T14:22:10;6.88;;;4.05;;
18568;SDS011;14780;48.316;-1.050;2023-03-01T14:25:16;6.93;;;4.30;;
18568;SDS011;14780;48.316;-1.050;2023-03-01T14:30:58;6.07;;;4.00;;
18568;SDS011;14780;48.316;-1.050;2023-03-01T14:33:44;6.15;;;3.97;;
18568;SDS011;14780;48.316;-1.050;2023-03-01T14:36:39;6.57;;;3.95;;
18568;SDS011;14780;48.316;-1.050;2023-03-01T14:39:24;6.40;;;4.10;;
18568;SDS011;14780;48.316;-1.050;2023-03-01T14:42:09;5.45;;;3.67;;
18568;SDS011;14780;48.316;-1.050;2023-03-01T14:44:56;6.40;;;3.80;;
18568;SDS011;14780;48.316;-1.050;2023-03-01T14:47:44;9.05;;;5.40;;
18568;SDS011;14780;48.316;-1.050;2023-03-01T14:50:34;13.48;;;7.55;;
18568;SDS011;14780;48.316;-1.050;2023-03-01T14:53:27;16.55;;;8.80;;
18568;SDS011;14780;48.316;-1.050;2023-03-01T14:56:14;18.27;;;10.27;;
18568;SDS011;14780;48.316;-1.050;2023-03-01T14:59:03;19.52;;;10.93;;
18568;SDS011;14780;48.316;-1.050;2023-03-01T15:01:47;18.73;;;10.45;;
18568;SDS011;14780;48.316;-1.050;2023-03-01T15:04:34;17.80;;;9.35;;
18568;SDS011;14780;48.316;-1.050;2023-03-01T15:07:19;19.45;;;10.18;;
18568;SDS011;14780;48.316;-1.050;2023-03-01T15:10:05;21.08;;;10.00;;
18568;SDS011;14780;48.316;-1.050;2023-03-01T15:13:10;19.20;;;10.70;;
18568;SDS011;14780;48.316;-1.050;2023-03-01T15:16:06;20.27;;;10.65;;
18568;SDS011;14780;48.316;-1.050;2023-03-01T15:19:03;18.75;;;10.60;;
18568;SDS011;14780;48.316;-1.050;2023-03-01T15:21:49;21.85;;;10.88;;
18568;SDS011;14780;48.316;-1.050;2023-03-01T15:24:35;21.05;;;11.77;;
18568;SDS011;14780;48.316;-1.050;2023-03-01T15:27:22;20.42;;;10.77;;
18568;SDS011;14780;48.316;-1.050;2023-03-01T15:30:13;20.40;;;11.55;;
18568;SDS011;14780;48.316;-1.050;2023-03-01T15:39:40;18.30;;;10.90;;
18568;SDS011;14780;48.316;-1.050;2023-03-01T15:48:01;21.33;;;11.52;;
18568;SDS011;14780;48.316;-1.050;2023-03-01T15:51:09;21.27;;;11.27;;
18568;SDS011;14780;48.316;-1.050;2023-03-01T15:53:58;19.77;;;11.77;;
18568;SDS011;14780;48.316;-1.050;2023-03-01T15:56:45;20.50;;;11.52;;
18568;SDS011;14780;48.316;-1.050;2023-03-01T15:59:30;21.65;;;11.90;;
18568;SDS011;14780;48.316;-1.050;2023-03-01T16:02:15;19.67;;;10.75;;
18568;SDS011;14780;48.316;-1.050;2023-03-01T16:05:00;19.38;;;10.52;;
18568;SDS011;14780;48.316;-1.050;2023-03-01T16:07:44;17.13;;;10.45;;
18568;SDS011;14780;48.316;-1.050;2023-03-01T16:10:29;15.90;;;10.07;;
18568;SDS011;14780;48.316;-1.050;2023-03-01T16:13:14;14.43;;;9.57;;
18568;SDS011;14780;48.316;-1.050;2023-03-01T16:16:01;18.33;;;9.52;;
18568;SDS011;14780;48.316;-1.050;2023-03-01T16:18:46;17.85;;;8.60;;
18568;SDS011;14780;48.316;-1.050;2023-03-01T16:21:31;14.98;;;8.82;;
18568;SDS011;14780;48.316;-1.050;2023-03-01T16:24:16;18.40;;;9.00;;
18568;SDS011;14780;48.316;-1.050;2023-03-01T16:27:00;13.63;;;8.30;;
18568;SDS011;14780;48.316;-1.050;2023-03-01T16:29:45;14.23;;;7.85;;
18568;SDS011;14780;48.316;-1.050;2023-03-01T16:32:30;15.63;;;8.88;;
18568;SDS011;14780;48.316;-1.050;2023-03-01T16:35:16;15.00;;;8.15;;
18568;SDS011;14780;48.316;-1.050;2023-03-01T16:38:02;12.23;;;6.97;;
18568;SDS011;14780;48.316;-1.050;2023-03-01T16:40:47;13.93;;;7.30;;
18568;SDS011;14780;48.316;-1.050;2023-03-01T16:43:34;14.23;;;7.78;;
18568;SDS011;14780;48.316;-1.050;2023-03-01T16:46:20;12.60;;;7.22;;
18568;SDS011;14780;48.316;-1.050;2023-03-01T16:49:09;11.30;;;6.07;;
18568;SDS011;14780;48.316;-1.050;2023-03-01T16:51:54;12.98;;;6.82;;
18568;SDS011;14780;48.316;-1.050;2023-03-01T16:54:39;12.32;;;6.43;;
18568;SDS011;14780;48.316;-1.050;2023-03-01T16:57:24;11.40;;;6.18;;
18568;SDS011;14780;48.316;-1.050;2023-03-01T17:00:09;10.73;;;6.30;;
18568;SDS011;14780;48.316;-1.050;2023-03-01T17:02:56;11.13;;;6.50;;
18568;SDS011;14780;48.316;-1.050;2023-03-01T17:05:41;9.35;;;5.32;;
18568;SDS011;14780;48.316;-1.050;2023-03-01T17:08:26;10.45;;;5.40;;
18568;SDS011;14780;48.316;-1.050;2023-03-01T17:11:14;8.25;;;5.13;;
18568;SDS011;14780;48.316;-1.050;2023-03-01T17:14:01;10.57;;;5.40;;
18568;SDS011;14780;48.316;-1.050;2023-03-01T17:16:46;10.95;;;5.70;;
18568;SDS011;14780;48.316;-1.050;2023-03-01T17:19:30;12.00;;;5.88;;
18568;SDS011;14780;48.316;-1.050;2023-03-01T17:22:15;12.23;;;5.53;;
18568;SDS011;14780;48.316;-1.050;2023-03-01T17:25:00;11.77;;;5.57;;
18568;SDS011;14780;48.316;-1.050;2023-03-01T17:27:45;8.93;;;5.20;;
18568;SDS011;14780;48.316;-1.050;2023-03-01T17:30:30;9.60;;;5.43;;
18568;SDS011;14780;48.316;-1.050;2023-03-01T17:33:15;9.45;;;4.80;;
18568;SDS011;14780;48.316;-1.050;2023-03-01T17:36:01;8.52;;;4.53;;
18568;SDS011;14780;48.316;-1.050;2023-03-01T17:38:46;9.93;;;4.68;;
18568;SDS011;14780;48.316;-1.050;2023-03-01T17:41:32;7.65;;;3.92;;
18568;SDS011;14780;48.316;-1.050;2023-03-01T17:44:17;6.95;;;4.05;;
18568;SDS011;14780;48.316;-1.050;2023-03-01T17:47:02;8.52;;;4.25;;
18568;SDS011;14780;48.316;-1.050;2023-03-01T17:49:48;8.02;;;4.00;;
18568;SDS011;14780;48.316;-1.050;2023-03-01T17:52:32;6.88;;;3.85;;
18568;SDS011;14780;48.316;-1.050;2023-03-01T17:55:17;8.00;;;3.78;;
18568;SDS011;14780;48.316;-1.050;2023-03-01T17:58:02;7.28;;;3.80;;
18568;SDS011;14780;48.316;-1.050;2023-03-01T18:00:49;7.38;;;3.53;;
18568;SDS011;14780;48.316;-1.050;2023-03-01T18:03:33;8.93;;;3.67;;
18568;SDS011;14780;48.316;-1.050;2023-03-01T18:06:19;11.55;;;4.03;;
18568;SDS011;14780;48.316;-1.050;2023-03-01T18:09:08;7.82;;;3.78;;
18568;SDS011;14780;48.316;-1.050;2023-03-01T18:11:54;6.93;;;3.42;;
18568;SDS011;14780;48.316;-1.050;2023-03-01T18:14:38;6.25;;;3.30;;
18568;SDS011;14780;48.316;-1.050;2023-03-01T18:17:23;5.78;;;3.10;;
18568;SDS011;14780;48.316;-1.050;2023-03-01T18:20:09;5.90;;;3.00;;
18568;SDS011;14780;48.316;-1.050;2023-03-01T18:22:55;11.75;;;3.22;;
18568;SDS011;14780;48.316;-1.050;2023-03-01T18:25:40;5.78;;;2.50;;
18568;SDS011;14780;48.316;-1.050;2023-03-01T18:28:25;4.75;;;2.92;;
18568;SDS011;14780;48.316;-1.050;2023-03-01T18:31:11;7.30;;;2.85;;
18568;SDS011;14780;48.316;-1.050;2023-03-01T18:34:00;8.20;;;3.05;;
18568;SDS011;14780;48.316;-1.050;2023-03-01T18:36:46;7.80;;;3.03;;
18568;SDS011;14780;48.316;-1.050;2023-03-01T18:39:34;5.03;;;2.70;;
18568;SDS011;14780;48.316;-1.050;2023-03-01T18:42:19;4.40;;;2.53;;
18568;SDS011;14780;48.316;-1.050;2023-03-01T18:45:05;4.75;;;2.83;;
18568;SDS011;14780;48.316;-1.050;2023-03-01T18:47:50;8.07;;;3.15;;